sensor_id;sensor_type;location;lat;lon;timestamp;P1;durP1;ratioP1;P2;durP2;ratioP2
67749;SDS011;54550;48.838;8.828;2022-09-03T00:02:45;2.53;;;1.97;;
67749;SDS011;54550;48.838;8.828;2022-09-03T00:07:50;5.07;;;2.20;;
67749;SDS011;54550;48.838;8.828;2022-09-03T00:10:20;3.60;;;2.00;;
67749;SDS011;54550;48.838;8.828;2022-09-03T00:12:47;4.60;;;2.13;;
67749;SDS011;54550;48.838;8.828;2022-09-03T00:15:19;2.63;;;1.60;;
67749;SDS011;54550;48.838;8.828;2022-09-03T00:17:47;3.73;;;1.83;;
67749;SDS011;54550;48.838;8.828;2022-09-03T00:20:15;2.00;;;1.80;;
67749;SDS011;54550;48.838;8.828;2022-09-03T00:22:47;2.07;;;1.87;;
67749;SDS011;54550;48.838;8.828;2022-09-03T00:25:28;1.83;;;1.57;;
67749;SDS011;54550;48.838;8.828;2022-09-03T00:27:58;3.30;;;1.80;;
67749;SDS011;54550;48.838;8.828;2022-09-03T00:30:26;2.80;;;2.00;;
67749;SDS011;54550;48.838;8.828;2022-09-03T00:35:25;2.80;;;1.80;;
67749;SDS011;54550;48.838;8.828;2022-09-03T00:37:52;5.57;;;1.83;;
67749;SDS011;54550;48.838;8.828;2022-09-03T00:43:07;2.33;;;1.73;;
67749;SDS011;54550;48.838;8.828;2022-09-03T00:45:40;3.57;;;2.33;;
67749;SDS011;54550;48.838;8.828;2022-09-03T00:48:17;8.30;;;1.63;;
67749;SDS011;54550;48.838;8.828;2022-09-03T00:50:57;4.20;;;1.83;;
67749;SDS011;54550;48.838;8.828;2022-09-03T00:53:33;2.93;;;1.63;;
67749;SDS011;54550;48.838;8.828;2022-09-03T00:56:03;4.23;;;1.80;;
67749;SDS011;54550;48.838;8.828;2022-09-03T01:01:35;1.90;;;1.70;;
67749;SDS011;54550;48.838;8.828;2022-09-03T01:06:49;2.97;;;1.67;;
67749;SDS011;54550;48.838;8.828;2022-09-03T01:10:03;4.43;;;1.87;;
67749;SDS011;54550;48.838;8.828;2022-09-03T01:12:15;3.40;;;2.60;;
67749;SDS011;54550;48.838;8.828;2022-09-03T01:17:15;2.40;;;1.90;;
67749;SDS011;54550;48.838;8.828;2022-09-03T01:29:46;3.07;;;2.17;;
67749;SDS011;54550;48.838;8.828;2022-09-03T01:34:57;5.93;;;2.03;;
67749;SDS011;54550;48.838;8.828;2022-09-03T01:50:30;2.70;;;2.13;;
67749;SDS011;54550;48.838;8.828;2022-09-03T01:53:04;3.63;;;2.10;;
67749;SDS011;54550;48.838;8.828;2022-09-03T01:58:04;2.20;;;1.77;;
67749;SDS011;54550;48.838;8.828;2022-09-03T02:00:32;3.67;;;1.70;;
67749;SDS011;54550;48.838;8.828;2022-09-03T02:03:01;2.93;;;2.10;;
67749;SDS011;54550;48.838;8.828;2022-09-03T02:05:30;5.60;;;1.93;;
67749;SDS011;54550;48.838;8.828;2022-09-03T02:08:04;7.47;;;2.13;;
67749;SDS011;54550;48.838;8.828;2022-09-03T02:13:06;2.20;;;1.80;;
67749;SDS011;54550;48.838;8.828;2022-09-03T02:15:32;3.60;;;2.27;;
67749;SDS011;54550;48.838;8.828;2022-09-03T02:18:01;4.87;;;2.20;;
67749;SDS011;54550;48.838;8.828;2022-09-03T02:20:28;2.00;;;1.80;;
67749;SDS011;54550;48.838;8.828;2022-09-03T02:22:55;4.33;;;1.90;;
67749;SDS011;54550;48.838;8.828;2022-09-03T02:25:22;2.80;;;1.90;;
67749;SDS011;54550;48.838;8.828;2022-09-03T02:27:49;5.17;;;2.27;;
67749;SDS011;54550;48.838;8.828;2022-09-03T02:30:15;2.90;;;1.87;;
67749;SDS011;54550;48.838;8.828;2022-09-03T02:32:42;2.23;;;1.90;;
67749;SDS011;54550;48.838;8.828;2022-09-03T02:35:09;1.70;;;1.60;;
67749;SDS011;54550;48.838;8.828;2022-09-03T02:37:36;4.33;;;2.37;;
67749;SDS011;54550;48.838;8.828;2022-09-03T02:40:02;2.40;;;1.57;;
67749;SDS011;54550;48.838;8.828;2022-09-03T02:42:32;5.73;;;2.00;;
67749;SDS011;54550;48.838;8.828;2022-09-03T02:45:41;4.30;;;2.30;;
67749;SDS011;54550;48.838;8.828;2022-09-03T02:47:49;3.50;;;2.20;;
67749;SDS011;54550;48.838;8.828;2022-09-03T02:50:16;5.50;;;2.13;;
67749;SDS011;54550;48.838;8.828;2022-09-03T02:52:43;2.10;;;1.90;;
67749;SDS011;54550;48.838;8.828;2022-09-03T02:55:09;2.20;;;2.00;;
67749;SDS011;54550;48.838;8.828;2022-09-03T02:57:35;6.53;;;2.93;;
67749;SDS011;54550;48.838;8.828;2022-09-03T03:00:01;1.67;;;1.57;;
67749;SDS011;54550;48.838;8.828;2022-09-03T03:02:27;1.83;;;1.73;;
67749;SDS011;54550;48.838;8.828;2022-09-03T03:04:53;2.07;;;1.80;;
67749;SDS011;54550;48.838;8.828;2022-09-03T03:07:19;6.27;;;2.30;;
67749;SDS011;54550;48.838;8.828;2022-09-03T03:09:45;2.23;;;1.90;;
67749;SDS011;54550;48.838;8.828;2022-09-03T03:12:11;3.43;;;1.80;;
67749;SDS011;54550;48.838;8.828;2022-09-03T03:14:37;8.90;;;2.30;;
67749;SDS011;54550;48.838;8.828;2022-09-03T03:17:03;8.23;;;1.90;;
67749;SDS011;54550;48.838;8.828;2022-09-03T03:19:29;4.23;;;2.03;;
67749;SDS011;54550;48.838;8.828;2022-09-03T03:21:55;9.53;;;2.87;;
67749;SDS011;54550;48.838;8.828;2022-09-03T03:24:21;6.03;;;2.07;;
67749;SDS011;54550;48.838;8.828;2022-09-03T03:26:47;8.80;;;2.33;;
67749;SDS011;54550;48.838;8.828;2022-09-03T03:29:15;2.43;;;2.23;;
67749;SDS011;54550;48.838;8.828;2022-09-03T03:31:42;8.50;;;2.53;;
67749;SDS011;54550;48.838;8.828;2022-09-03T03:34:08;2.63;;;2.43;;
67749;SDS011;54550;48.838;8.828;2022-09-03T03:36:34;4.50;;;2.50;;
67749;SDS011;54550;48.838;8.828;2022-09-03T03:39:00;10.97;;;2.97;;
67749;SDS011;54550;48.838;8.828;2022-09-03T03:41:31;7.13;;;2.20;;
67749;SDS011;54550;48.838;8.828;2022-09-03T03:43:58;4.50;;;2.50;;
67749;SDS011;54550;48.838;8.828;2022-09-03T03:46:27;2.80;;;2.47;;
67749;SDS011;54550;48.838;8.828;2022-09-03T03:48:53;4.90;;;2.60;;
67749;SDS011;54550;48.838;8.828;2022-09-03T03:51:19;4.13;;;2.63;;
67749;SDS011;54550;48.838;8.828;2022-09-03T03:53:46;5.70;;;2.60;;
67749;SDS011;54550;48.838;8.828;2022-09-03T03:56:13;3.70;;;2.87;;
67749;SDS011;54550;48.838;8.828;2022-09-03T03:58:40;5.30;;;2.57;;
67749;SDS011;54550;48.838;8.828;2022-09-03T04:01:09;3.87;;;2.43;;
67749;SDS011;54550;48.838;8.828;2022-09-03T04:03:35;3.07;;;2.77;;
67749;SDS011;54550;48.838;8.828;2022-09-03T04:06:02;6.07;;;2.77;;
67749;SDS011;54550;48.838;8.828;2022-09-03T04:08:29;3.30;;;2.77;;
67749;SDS011;54550;48.838;8.828;2022-09-03T04:10:58;3.23;;;2.27;;
67749;SDS011;54550;48.838;8.828;2022-09-03T04:13:27;10.70;;;2.90;;
67749;SDS011;54550;48.838;8.828;2022-09-03T04:15:59;5.10;;;2.70;;
67749;SDS011;54550;48.838;8.828;2022-09-03T04:18:25;9.13;;;3.20;;
67749;SDS011;54550;48.838;8.828;2022-09-03T04:20:51;3.90;;;3.17;;
67749;SDS011;54550;48.838;8.828;2022-09-03T04:23:17;6.03;;;2.90;;
67749;SDS011;54550;48.838;8.828;2022-09-03T04:25:43;6.67;;;3.10;;
67749;SDS011;54550;48.838;8.828;2022-09-03T04:28:09;8.43;;;3.40;;
67749;SDS011;54550;48.838;8.828;2022-09-03T04:30:36;2.60;;;2.40;;
67749;SDS011;54550;48.838;8.828;2022-09-03T04:33:02;3.03;;;2.40;;
67749;SDS011;54550;48.838;8.828;2022-09-03T04:35:28;3.50;;;2.70;;
67749;SDS011;54550;48.838;8.828;2022-09-03T04:37:56;4.40;;;3.40;;
67749;SDS011;54550;48.838;8.828;2022-09-03T04:40:22;5.20;;;2.80;;
67749;SDS011;54550;48.838;8.828;2022-09-03T04:42:48;6.00;;;3.17;;
67749;SDS011;54550;48.838;8.828;2022-09-03T04:45:14;6.40;;;3.17;;
67749;SDS011;54550;48.838;8.828;2022-09-03T04:47:43;5.30;;;3.40;;
67749;SDS011;54550;48.838;8.828;2022-09-03T04:50:10;4.20;;;3.27;;
67749;SDS011;54550;48.838;8.828;2022-09-03T04:52:37;4.00;;;2.80;;
67749;SDS011;54550;48.838;8.828;2022-09-03T04:55:03;5.30;;;3.57;;
67749;SDS011;54550;48.838;8.828;2022-09-03T04:57:29;5.83;;;3.10;;
67749;SDS011;54550;48.838;8.828;2022-09-03T04:59:59;4.03;;;3.63;;
67749;SDS011;54550;48.838;8.828;2022-09-03T05:02:25;4.37;;;3.30;;
67749;SDS011;54550;48.838;8.828;2022-09-03T05:04:51;7.10;;;4.10;;
67749;SDS011;54550;48.838;8.828;2022-09-03T05:07:18;6.63;;;3.77;;
67749;SDS011;54550;48.838;8.828;2022-09-03T05:09:44;7.17;;;3.17;;
67749;SDS011;54550;48.838;8.828;2022-09-03T05:12:10;3.77;;;3.37;;
67749;SDS011;54550;48.838;8.828;2022-09-03T05:14:37;3.87;;;3.57;;
67749;SDS011;54550;48.838;8.828;2022-09-03T05:17:03;6.87;;;3.50;;
67749;SDS011;54550;48.838;8.828;2022-09-03T05:19:29;4.03;;;3.63;;
67749;SDS011;54550;48.838;8.828;2022-09-03T05:21:55;5.60;;;3.83;;
67749;SDS011;54550;48.838;8.828;2022-09-03T05:24:21;4.63;;;3.53;;
67749;SDS011;54550;48.838;8.828;2022-09-03T05:26:47;8.27;;;3.80;;
67749;SDS011;54550;48.838;8.828;2022-09-03T05:29:13;6.50;;;3.50;;
67749;SDS011;54550;48.838;8.828;2022-09-03T05:31:40;15.30;;;3.20;;
67749;SDS011;54550;48.838;8.828;2022-09-03T05:34:06;4.57;;;4.20;;
67749;SDS011;54550;48.838;8.828;2022-09-03T05:36:34;5.57;;;4.07;;
67749;SDS011;54550;48.838;8.828;2022-09-03T05:39:03;3.70;;;3.40;;
67749;SDS011;54550;48.838;8.828;2022-09-03T05:41:29;3.67;;;3.37;;
67749;SDS011;54550;48.838;8.828;2022-09-03T05:43:57;6.93;;;3.40;;
67749;SDS011;54550;48.838;8.828;2022-09-03T05:46:24;7.03;;;3.40;;
67749;SDS011;54550;48.838;8.828;2022-09-03T05:48:55;3.83;;;3.13;;
67749;SDS011;54550;48.838;8.828;2022-09-03T05:51:21;3.80;;;3.37;;
67749;SDS011;54550;48.838;8.828;2022-09-03T05:53:47;4.40;;;2.93;;
67749;SDS011;54550;48.838;8.828;2022-09-03T05:56:17;4.80;;;3.57;;
67749;SDS011;54550;48.838;8.828;2022-09-03T05:58:45;4.07;;;3.33;;
67749;SDS011;54550;48.838;8.828;2022-09-03T06:01:18;3.20;;;2.90;;
67749;SDS011;54550;48.838;8.828;2022-09-03T06:03:46;6.37;;;3.30;;
67749;SDS011;54550;48.838;8.828;2022-09-03T06:06:13;4.60;;;3.23;;
67749;SDS011;54550;48.838;8.828;2022-09-03T06:08:39;4.90;;;4.00;;
67749;SDS011;54550;48.838;8.828;2022-09-03T06:11:06;3.73;;;3.40;;
67749;SDS011;54550;48.838;8.828;2022-09-03T06:13:33;10.30;;;3.47;;
67749;SDS011;54550;48.838;8.828;2022-09-03T06:16:00;8.80;;;4.07;;
67749;SDS011;54550;48.838;8.828;2022-09-03T06:18:27;10.43;;;3.90;;
67749;SDS011;54550;48.838;8.828;2022-09-03T06:21:03;13.00;;;3.73;;
67749;SDS011;54550;48.838;8.828;2022-09-03T06:23:30;6.73;;;3.40;;
67749;SDS011;54550;48.838;8.828;2022-09-03T06:28:25;11.30;;;3.00;;
67749;SDS011;54550;48.838;8.828;2022-09-03T06:30:52;7.07;;;3.73;;
67749;SDS011;54550;48.838;8.828;2022-09-03T06:33:20;3.80;;;2.60;;
67749;SDS011;54550;48.838;8.828;2022-09-03T06:35:51;3.97;;;2.50;;
67749;SDS011;54550;48.838;8.828;2022-09-03T06:38:17;10.53;;;3.17;;
67749;SDS011;54550;48.838;8.828;2022-09-03T06:40:43;2.63;;;2.43;;
67749;SDS011;54550;48.838;8.828;2022-09-03T06:43:16;3.60;;;3.30;;
67749;SDS011;54550;48.838;8.828;2022-09-03T06:45:42;3.70;;;3.40;;
67749;SDS011;54550;48.838;8.828;2022-09-03T06:48:08;4.33;;;3.90;;
67749;SDS011;54550;48.838;8.828;2022-09-03T06:50:34;7.73;;;3.40;;
67749;SDS011;54550;48.838;8.828;2022-09-03T06:53:00;4.63;;;3.03;;
67749;SDS011;54550;48.838;8.828;2022-09-03T06:55:26;5.37;;;3.67;;
67749;SDS011;54550;48.838;8.828;2022-09-03T06:57:54;6.57;;;3.40;;
67749;SDS011;54550;48.838;8.828;2022-09-03T07:00:21;5.47;;;3.40;;
67749;SDS011;54550;48.838;8.828;2022-09-03T07:02:47;4.70;;;4.17;;
67749;SDS011;54550;48.838;8.828;2022-09-03T07:05:15;3.70;;;3.40;;
67749;SDS011;54550;48.838;8.828;2022-09-03T07:07:41;4.30;;;3.67;;
67749;SDS011;54550;48.838;8.828;2022-09-03T07:10:10;4.43;;;3.43;;
67749;SDS011;54550;48.838;8.828;2022-09-03T07:12:40;3.90;;;2.87;;
67749;SDS011;54550;48.838;8.828;2022-09-03T07:15:06;4.67;;;3.00;;
67749;SDS011;54550;48.838;8.828;2022-09-03T07:17:32;6.30;;;3.30;;
67749;SDS011;54550;48.838;8.828;2022-09-03T07:19:58;3.40;;;2.80;;
67749;SDS011;54550;48.838;8.828;2022-09-03T07:22:24;5.10;;;3.00;;
67749;SDS011;54550;48.838;8.828;2022-09-03T07:24:50;3.70;;;2.87;;
67749;SDS011;54550;48.838;8.828;2022-09-03T07:27:16;3.83;;;2.87;;
67749;SDS011;54550;48.838;8.828;2022-09-03T07:29:42;8.23;;;3.50;;
67749;SDS011;54550;48.838;8.828;2022-09-03T07:32:08;5.73;;;3.40;;
67749;SDS011;54550;48.838;8.828;2022-09-03T07:34:34;7.00;;;2.90;;
67749;SDS011;54550;48.838;8.828;2022-09-03T07:37:00;24.13;;;2.87;;
67749;SDS011;54550;48.838;8.828;2022-09-03T07:39:29;3.00;;;2.80;;
67749;SDS011;54550;48.838;8.828;2022-09-03T07:41:55;2.77;;;2.57;;
67749;SDS011;54550;48.838;8.828;2022-09-03T07:44:22;7.90;;;2.93;;
67749;SDS011;54550;48.838;8.828;2022-09-03T07:46:49;6.90;;;3.70;;
67749;SDS011;54550;48.838;8.828;2022-09-03T07:49:15;4.20;;;2.90;;
67749;SDS011;54550;48.838;8.828;2022-09-03T07:51:41;5.20;;;3.10;;
67749;SDS011;54550;48.838;8.828;2022-09-03T07:54:08;4.37;;;3.03;;
67749;SDS011;54550;48.838;8.828;2022-09-03T07:56:35;4.57;;;3.33;;
67749;SDS011;54550;48.838;8.828;2022-09-03T07:59:02;4.97;;;2.50;;
67749;SDS011;54550;48.838;8.828;2022-09-03T08:01:28;7.67;;;3.60;;
67749;SDS011;54550;48.838;8.828;2022-09-03T08:03:55;5.50;;;3.60;;
67749;SDS011;54550;48.838;8.828;2022-09-03T08:06:22;14.70;;;4.87;;
67749;SDS011;54550;48.838;8.828;2022-09-03T08:08:53;5.97;;;3.57;;
67749;SDS011;54550;48.838;8.828;2022-09-03T08:11:21;13.73;;;3.40;;
67749;SDS011;54550;48.838;8.828;2022-09-03T08:13:47;6.33;;;2.93;;
67749;SDS011;54550;48.838;8.828;2022-09-03T08:16:15;3.40;;;3.10;;
67749;SDS011;54550;48.838;8.828;2022-09-03T08:18:42;8.47;;;3.03;;
67749;SDS011;54550;48.838;8.828;2022-09-03T08:21:12;3.23;;;2.87;;
67749;SDS011;54550;48.838;8.828;2022-09-03T08:23:40;3.13;;;2.83;;
67749;SDS011;54550;48.838;8.828;2022-09-03T08:26:06;4.57;;;2.93;;
67749;SDS011;54550;48.838;8.828;2022-09-03T08:28:33;6.50;;;3.90;;
67749;SDS011;54550;48.838;8.828;2022-09-03T08:31:04;5.40;;;3.40;;
67749;SDS011;54550;48.838;8.828;2022-09-03T08:33:30;4.57;;;3.47;;
67749;SDS011;54550;48.838;8.828;2022-09-03T08:36:12;5.20;;;4.53;;
67749;SDS011;54550;48.838;8.828;2022-09-03T08:38:38;3.17;;;2.93;;
67749;SDS011;54550;48.838;8.828;2022-09-03T08:41:11;8.87;;;4.17;;
67749;SDS011;54550;48.838;8.828;2022-09-03T08:46:32;3.57;;;3.07;;
67749;SDS011;54550;48.838;8.828;2022-09-03T08:49:00;6.43;;;3.50;;
67749;SDS011;54550;48.838;8.828;2022-09-03T08:51:27;6.37;;;3.93;;
67749;SDS011;54550;48.838;8.828;2022-09-03T08:53:53;3.43;;;3.13;;
67749;SDS011;54550;48.838;8.828;2022-09-03T08:56:25;3.63;;;2.40;;
67749;SDS011;54550;48.838;8.828;2022-09-03T08:58:52;4.20;;;2.80;;
67749;SDS011;54550;48.838;8.828;2022-09-03T09:01:29;5.30;;;3.10;;
67749;SDS011;54550;48.838;8.828;2022-09-03T09:06:32;6.20;;;3.57;;
67749;SDS011;54550;48.838;8.828;2022-09-03T09:09:14;3.50;;;3.13;;
67749;SDS011;54550;48.838;8.828;2022-09-03T09:11:52;3.50;;;3.20;;
67749;SDS011;54550;48.838;8.828;2022-09-03T09:19:29;5.63;;;2.97;;
67749;SDS011;54550;48.838;8.828;2022-09-03T09:21:58;5.07;;;3.40;;
67749;SDS011;54550;48.838;8.828;2022-09-03T09:24:27;3.17;;;2.97;;
67749;SDS011;54550;48.838;8.828;2022-09-03T09:26:58;4.30;;;3.47;;
67749;SDS011;54550;48.838;8.828;2022-09-03T09:29:26;5.13;;;3.93;;
67749;SDS011;54550;48.838;8.828;2022-09-03T09:31:54;3.37;;;3.07;;
67749;SDS011;54550;48.838;8.828;2022-09-03T09:34:20;4.90;;;3.90;;
67749;SDS011;54550;48.838;8.828;2022-09-03T09:36:52;5.90;;;4.03;;
67749;SDS011;54550;48.838;8.828;2022-09-03T09:39:18;4.53;;;3.80;;
67749;SDS011;54550;48.838;8.828;2022-09-03T09:42:01;10.33;;;4.43;;
67749;SDS011;54550;48.838;8.828;2022-09-03T09:44:32;4.47;;;3.60;;
67749;SDS011;54550;48.838;8.828;2022-09-03T09:47:05;4.43;;;3.87;;
67749;SDS011;54550;48.838;8.828;2022-09-03T09:50:16;4.37;;;3.60;;
67749;SDS011;54550;48.838;8.828;2022-09-03T09:52:23;6.87;;;3.70;;
67749;SDS011;54550;48.838;8.828;2022-09-03T09:54:50;6.53;;;3.90;;
67749;SDS011;54550;48.838;8.828;2022-09-03T09:57:22;6.70;;;3.70;;
67749;SDS011;54550;48.838;8.828;2022-09-03T09:59:49;4.53;;;3.83;;
67749;SDS011;54550;48.838;8.828;2022-09-03T10:02:19;5.50;;;3.93;;
67749;SDS011;54550;48.838;8.828;2022-09-03T10:04:50;8.40;;;6.53;;
67749;SDS011;54550;48.838;8.828;2022-09-03T10:07:21;5.37;;;3.43;;
67749;SDS011;54550;48.838;8.828;2022-09-03T10:09:58;4.33;;;3.50;;
67749;SDS011;54550;48.838;8.828;2022-09-03T10:12:28;11.57;;;3.40;;
67749;SDS011;54550;48.838;8.828;2022-09-03T10:15:07;3.40;;;3.10;;
67749;SDS011;54550;48.838;8.828;2022-09-03T10:20:21;8.33;;;2.93;;
67749;SDS011;54550;48.838;8.828;2022-09-03T10:23:09;3.70;;;2.67;;
67749;SDS011;54550;48.838;8.828;2022-09-03T10:25:41;3.40;;;3.10;;
67749;SDS011;54550;48.838;8.828;2022-09-03T10:28:09;2.97;;;2.40;;
67749;SDS011;54550;48.838;8.828;2022-09-03T10:30:39;3.47;;;2.70;;
67749;SDS011;54550;48.838;8.828;2022-09-03T10:33:13;4.87;;;2.50;;
67749;SDS011;54550;48.838;8.828;2022-09-03T10:35:45;2.10;;;2.00;;
67749;SDS011;54550;48.838;8.828;2022-09-03T10:38:25;2.60;;;2.30;;
67749;SDS011;54550;48.838;8.828;2022-09-03T10:43:54;9.07;;;2.73;;
67749;SDS011;54550;48.838;8.828;2022-09-03T10:46:25;2.93;;;2.53;;
67749;SDS011;54550;48.838;8.828;2022-09-03T10:51:34;5.77;;;2.13;;
67749;SDS011;54550;48.838;8.828;2022-09-03T10:54:14;13.20;;;2.27;;
67749;SDS011;54550;48.838;8.828;2022-09-03T11:05:05;2.50;;;2.30;;
67749;SDS011;54550;48.838;8.828;2022-09-03T11:07:37;4.40;;;2.43;;
67749;SDS011;54550;48.838;8.828;2022-09-03T11:12:41;3.13;;;2.53;;
67749;SDS011;54550;48.838;8.828;2022-09-03T11:15:08;5.60;;;2.60;;
67749;SDS011;54550;48.838;8.828;2022-09-03T11:17:37;3.20;;;2.90;;
67749;SDS011;54550;48.838;8.828;2022-09-03T11:20:20;3.90;;;2.40;;
67749;SDS011;54550;48.838;8.828;2022-09-03T11:22:47;11.60;;;3.00;;
67749;SDS011;54550;48.838;8.828;2022-09-03T11:25:14;3.80;;;2.40;;
67749;SDS011;54550;48.838;8.828;2022-09-03T11:30:11;9.60;;;2.77;;
67749;SDS011;54550;48.838;8.828;2022-09-03T11:35:14;2.50;;;2.30;;
67749;SDS011;54550;48.838;8.828;2022-09-03T11:37:46;5.10;;;2.20;;
67749;SDS011;54550;48.838;8.828;2022-09-03T11:40:15;2.83;;;2.53;;
67749;SDS011;54550;48.838;8.828;2022-09-03T11:42:43;2.80;;;2.17;;
67749;SDS011;54550;48.838;8.828;2022-09-03T11:45:20;2.83;;;2.40;;
67749;SDS011;54550;48.838;8.828;2022-09-03T11:47:46;3.77;;;2.77;;
67749;SDS011;54550;48.838;8.828;2022-09-03T11:50:20;2.70;;;2.23;;
67749;SDS011;54550;48.838;8.828;2022-09-03T11:52:47;4.57;;;2.53;;
67749;SDS011;54550;48.838;8.828;2022-09-03T11:55:31;4.23;;;2.30;;
67749;SDS011;54550;48.838;8.828;2022-09-03T11:58:09;5.60;;;2.50;;
67749;SDS011;54550;48.838;8.828;2022-09-03T12:00:35;2.63;;;2.40;;
67749;SDS011;54550;48.838;8.828;2022-09-03T12:03:02;2.67;;;2.40;;
67749;SDS011;54550;48.838;8.828;2022-09-03T12:05:48;7.70;;;2.40;;
67749;SDS011;54550;48.838;8.828;2022-09-03T12:16:05;2.30;;;2.10;;
67749;SDS011;54550;48.838;8.828;2022-09-03T12:18:35;9.03;;;3.10;;
67749;SDS011;54550;48.838;8.828;2022-09-03T12:21:03;6.90;;;3.37;;
67749;SDS011;54550;48.838;8.828;2022-09-03T12:26:00;4.17;;;2.73;;
67749;SDS011;54550;48.838;8.828;2022-09-03T12:28:28;5.90;;;2.20;;
67749;SDS011;54550;48.838;8.828;2022-09-03T12:31:04;2.57;;;2.37;;
67749;SDS011;54550;48.838;8.828;2022-09-03T12:33:32;4.47;;;3.10;;
67749;SDS011;54550;48.838;8.828;2022-09-03T12:35:59;3.17;;;1.77;;
67749;SDS011;54550;48.838;8.828;2022-09-03T12:38:26;2.00;;;1.80;;
67749;SDS011;54550;48.838;8.828;2022-09-03T12:40:53;3.10;;;1.73;;
67749;SDS011;54550;48.838;8.828;2022-09-03T12:43:19;4.90;;;1.73;;
67749;SDS011;54550;48.838;8.828;2022-09-03T12:45:51;2.93;;;1.60;;
67749;SDS011;54550;48.838;8.828;2022-09-03T12:48:18;6.33;;;1.43;;
67749;SDS011;54550;48.838;8.828;2022-09-03T12:50:45;6.10;;;1.40;;
67749;SDS011;54550;48.838;8.828;2022-09-03T12:53:13;3.83;;;1.30;;
67749;SDS011;54550;48.838;8.828;2022-09-03T12:58:22;3.90;;;1.10;;
67749;SDS011;54550;48.838;8.828;2022-09-03T13:00:59;5.30;;;1.13;;
67749;SDS011;54550;48.838;8.828;2022-09-03T13:03:40;5.47;;;1.60;;
67749;SDS011;54550;48.838;8.828;2022-09-03T13:06:09;9.17;;;1.87;;
67749;SDS011;54550;48.838;8.828;2022-09-03T13:08:50;1.93;;;1.67;;
67749;SDS011;54550;48.838;8.828;2022-09-03T13:11:18;4.10;;;2.00;;
67749;SDS011;54550;48.838;8.828;2022-09-03T13:13:52;4.87;;;2.27;;
67749;SDS011;54550;48.838;8.828;2022-09-03T13:16:33;5.70;;;1.83;;
67749;SDS011;54550;48.838;8.828;2022-09-03T13:19:08;3.87;;;1.70;;
67749;SDS011;54550;48.838;8.828;2022-09-03T13:26:34;3.03;;;1.33;;
67749;SDS011;54550;48.838;8.828;2022-09-03T13:29:15;4.10;;;1.60;;
67749;SDS011;54550;48.838;8.828;2022-09-03T13:31:45;6.50;;;1.33;;
67749;SDS011;54550;48.838;8.828;2022-09-03T13:34:21;2.07;;;1.37;;
67749;SDS011;54550;48.838;8.828;2022-09-03T13:37:32;4.30;;;1.50;;
67749;SDS011;54550;48.838;8.828;2022-09-03T13:39:42;1.63;;;1.20;;
67749;SDS011;54550;48.838;8.828;2022-09-03T13:42:12;3.83;;;1.90;;
67749;SDS011;54550;48.838;8.828;2022-09-03T13:44:54;2.73;;;1.30;;
67749;SDS011;54550;48.838;8.828;2022-09-03T13:47:33;6.63;;;1.80;;
67749;SDS011;54550;48.838;8.828;2022-09-03T13:50:06;6.43;;;1.60;;
67749;SDS011;54550;48.838;8.828;2022-09-03T13:53:07;9.20;;;1.87;;
67749;SDS011;54550;48.838;8.828;2022-09-03T13:55:44;9.40;;;2.10;;
67749;SDS011;54550;48.838;8.828;2022-09-03T14:08:34;14.23;;;2.50;;
67749;SDS011;54550;48.838;8.828;2022-09-03T14:18:51;19.20;;;3.80;;
67749;SDS011;54550;48.838;8.828;2022-09-03T14:21:24;17.10;;;4.10;;
67749;SDS011;54550;48.838;8.828;2022-09-03T14:24:13;8.73;;;3.30;;
67749;SDS011;54550;48.838;8.828;2022-09-03T14:26:48;8.93;;;3.30;;
67749;SDS011;54550;48.838;8.828;2022-09-03T14:29:15;17.03;;;4.90;;
67749;SDS011;54550;48.838;8.828;2022-09-03T14:31:57;39.80;;;6.73;;
67749;SDS011;54550;48.838;8.828;2022-09-03T14:34:34;16.80;;;10.30;;
67749;SDS011;54550;48.838;8.828;2022-09-03T14:39:33;7.10;;;3.50;;
67749;SDS011;54550;48.838;8.828;2022-09-03T14:42:07;6.37;;;4.40;;
67749;SDS011;54550;48.838;8.828;2022-09-03T14:47:17;5.33;;;2.77;;
67749;SDS011;54550;48.838;8.828;2022-09-03T14:50:08;11.43;;;3.53;;
67749;SDS011;54550;48.838;8.828;2022-09-03T15:00:07;2.93;;;1.80;;
67749;SDS011;54550;48.838;8.828;2022-09-03T15:02:47;2.70;;;2.20;;
67749;SDS011;54550;48.838;8.828;2022-09-03T15:07:53;6.07;;;2.33;;
67749;SDS011;54550;48.838;8.828;2022-09-03T15:13:06;2.40;;;1.73;;
67749;SDS011;54550;48.838;8.828;2022-09-03T15:15:41;1.97;;;1.83;;
67749;SDS011;54550;48.838;8.828;2022-09-03T15:18:13;3.33;;;2.53;;
67749;SDS011;54550;48.838;8.828;2022-09-03T15:20:46;2.40;;;2.00;;
67749;SDS011;54550;48.838;8.828;2022-09-03T15:26:09;4.27;;;2.20;;
67749;SDS011;54550;48.838;8.828;2022-09-03T15:31:26;10.70;;;2.77;;
67749;SDS011;54550;48.838;8.828;2022-09-03T15:33:59;5.07;;;2.23;;
67749;SDS011;54550;48.838;8.828;2022-09-03T15:36:34;9.30;;;2.80;;
67749;SDS011;54550;48.838;8.828;2022-09-03T15:39:03;3.67;;;2.20;;
67749;SDS011;54550;48.838;8.828;2022-09-03T15:44:17;6.33;;;2.87;;
67749;SDS011;54550;48.838;8.828;2022-09-03T15:46:59;4.13;;;3.00;;
67749;SDS011;54550;48.838;8.828;2022-09-03T15:52:17;3.47;;;2.50;;
67749;SDS011;54550;48.838;8.828;2022-09-03T15:57:23;7.20;;;4.80;;
67749;SDS011;54550;48.838;8.828;2022-09-03T15:59:56;4.10;;;2.37;;
67749;SDS011;54550;48.838;8.828;2022-09-03T16:02:27;3.00;;;2.57;;
67749;SDS011;54550;48.838;8.828;2022-09-03T16:15:08;3.67;;;3.33;;
67749;SDS011;54550;48.838;8.828;2022-09-03T16:17:37;8.20;;;2.80;;
67749;SDS011;54550;48.838;8.828;2022-09-03T16:20:18;6.60;;;2.60;;
67749;SDS011;54550;48.838;8.828;2022-09-03T16:25:15;6.43;;;3.20;;
67749;SDS011;54550;48.838;8.828;2022-09-03T16:27:56;6.00;;;3.20;;
67749;SDS011;54550;48.838;8.828;2022-09-03T16:33:10;7.53;;;4.20;;
67749;SDS011;54550;48.838;8.828;2022-09-03T16:36:22;7.73;;;4.33;;
67749;SDS011;54550;48.838;8.828;2022-09-03T16:41:02;4.83;;;4.00;;
67749;SDS011;54550;48.838;8.828;2022-09-03T16:46:35;5.60;;;4.00;;
67749;SDS011;54550;48.838;8.828;2022-09-03T16:51:53;9.80;;;4.10;;
67749;SDS011;54550;48.838;8.828;2022-09-03T16:56:54;9.90;;;5.70;;
67749;SDS011;54550;48.838;8.828;2022-09-03T17:02:07;5.27;;;3.80;;
67749;SDS011;54550;48.838;8.828;2022-09-03T17:07:36;10.50;;;3.60;;
67749;SDS011;54550;48.838;8.828;2022-09-03T17:10:09;3.40;;;3.07;;
67749;SDS011;54550;48.838;8.828;2022-09-03T17:15:25;8.00;;;3.10;;
67749;SDS011;54550;48.838;8.828;2022-09-03T17:20:46;7.63;;;3.40;;
67749;SDS011;54550;48.838;8.828;2022-09-03T17:26:09;8.60;;;4.73;;
67749;SDS011;54550;48.838;8.828;2022-09-03T17:28:50;6.77;;;5.03;;
67749;SDS011;54550;48.838;8.828;2022-09-03T17:31:41;6.00;;;5.40;;
67749;SDS011;54550;48.838;8.828;2022-09-03T17:39:32;6.60;;;5.83;;
67749;SDS011;54550;48.838;8.828;2022-09-03T17:42:05;14.50;;;6.63;;
67749;SDS011;54550;48.838;8.828;2022-09-03T17:44:54;8.23;;;7.30;;
67749;SDS011;54550;48.838;8.828;2022-09-03T17:54:50;7.10;;;4.53;;
67749;SDS011;54550;48.838;8.828;2022-09-03T17:57:18;4.37;;;3.87;;
67749;SDS011;54550;48.838;8.828;2022-09-03T18:00:01;5.43;;;4.63;;
67749;SDS011;54550;48.838;8.828;2022-09-03T18:02:34;9.00;;;4.80;;
67749;SDS011;54550;48.838;8.828;2022-09-03T18:07:48;6.33;;;5.30;;
67749;SDS011;54550;48.838;8.828;2022-09-03T18:10:18;7.33;;;5.93;;
67749;SDS011;54550;48.838;8.828;2022-09-03T18:12:50;7.70;;;5.20;;
67749;SDS011;54550;48.838;8.828;2022-09-03T18:15:31;13.40;;;5.77;;
67749;SDS011;54550;48.838;8.828;2022-09-03T18:20:24;8.37;;;5.80;;
67749;SDS011;54550;48.838;8.828;2022-09-03T18:23:13;6.67;;;5.60;;
67749;SDS011;54550;48.838;8.828;2022-09-03T18:26:02;6.77;;;6.07;;
67749;SDS011;54550;48.838;8.828;2022-09-03T18:29:00;8.60;;;6.10;;
67749;SDS011;54550;48.838;8.828;2022-09-03T18:31:46;5.50;;;4.20;;
67749;SDS011;54550;48.838;8.828;2022-09-03T18:34:31;6.63;;;4.53;;
67749;SDS011;54550;48.838;8.828;2022-09-03T18:37:20;12.20;;;5.53;;